createdAt,value
2022-08-07T00:01:43.747Z,6.13
2022-08-07T00:04:09.362Z,5.13
2022-08-07T00:06:51.389Z,5.78
2022-08-07T00:09:21.392Z,4.47
2022-08-07T00:11:55.428Z,6.32
2022-08-07T00:14:30.113Z,6.32
2022-08-07T00:17:02.419Z,7.18
2022-08-07T00:20:00.209Z,5.78
2022-08-07T00:22:24.428Z,6.32
2022-08-07T00:25:02.764Z,5.28
2022-08-07T00:27:51.657Z,6.60
2022-08-07T00:30:26.450Z,8.05
2022-08-07T00:32:59.836Z,6.20
2022-08-07T00:35:29.654Z,6.53
2022-08-07T00:37:57.827Z,5.85
2022-08-07T00:40:39.408Z,6.07
2022-08-07T00:44:00.854Z,5.18
2022-08-07T00:45:59.060Z,5.13
2022-08-07T00:48:31.793Z,6.22
2022-08-07T00:51:00.478Z,6.65
2022-08-07T00:53:27.699Z,4.93
2022-08-07T00:56:07.366Z,5.72
2022-08-07T00:58:47.074Z,7.03
2022-08-07T01:01:18.202Z,6.50
2022-08-07T01:03:57.276Z,4.53
2022-08-07T01:06:28.436Z,5.55
2022-08-07T01:08:58.361Z,5.30
2022-08-07T01:12:09.454Z,4.32
2022-08-07T01:14:21.298Z,4.68
2022-08-07T01:16:56.745Z,5.72
2022-08-07T01:19:26.581Z,4.47
2022-08-07T01:21:55.320Z,4.50
2022-08-07T01:24:28.534Z,5.00
2022-08-07T01:27:00.237Z,4.55
2022-08-07T01:29:31.402Z,6.00
2022-08-07T01:32:05.550Z,8.52
2022-08-07T01:34:44.438Z,6.65
2022-08-07T01:37:17.218Z,5.38
2022-08-07T01:39:48.230Z,6.40
2022-08-07T01:42:37.911Z,5.35
2022-08-07T01:45:18.266Z,5.45
2022-08-07T01:48:19.182Z,5.70
2022-08-07T01:50:38.244Z,4.95
2022-08-07T01:53:11.754Z,5.13
2022-08-07T01:56:00.461Z,5.07
2022-08-07T01:58:33.498Z,6.82
2022-08-07T02:01:58.695Z,5.55
2022-08-07T02:04:07.592Z,6.13
2022-08-07T02:09:09.057Z,7.75
2022-08-07T02:12:04.253Z,4.38
2022-08-07T02:14:40.203Z,5.90
2022-08-07T02:17:24.667Z,5.78
2022-08-07T02:20:05.627Z,5.55
2022-08-07T02:22:41.241Z,7.32
2022-08-07T02:25:13.813Z,3.97
2022-08-07T02:27:52.212Z,4.45
2022-08-07T02:30:21.375Z,6.68
2022-08-07T02:33:00.502Z,5.35
2022-08-07T02:36:29.776Z,6.65
2022-08-07T02:38:31.670Z,4.85
2022-08-07T02:41:03.776Z,4.05
2022-08-07T02:43:35.255Z,5.75
2022-08-07T02:46:07.378Z,6.43
2022-08-07T02:48:36.003Z,4.40
2022-08-07T02:51:14.304Z,6.20
2022-08-07T02:54:01.590Z,5.10
2022-08-07T02:56:33.053Z,6.10
2022-08-07T02:59:03.914Z,4.95
2022-08-07T03:01:36.009Z,6.28
2022-08-07T03:04:12.689Z,5.90
2022-08-07T03:06:45.776Z,5.93
2022-08-07T03:09:14.507Z,4.63
2022-08-07T03:11:51.677Z,4.57
2022-08-07T03:14:20.097Z,4.13
2022-08-07T03:16:50.878Z,4.80
2022-08-07T03:19:20.589Z,4.97
2022-08-07T03:21:50.759Z,6.07
2022-08-07T03:24:26.695Z,3.60
2022-08-07T03:27:00.258Z,4.28
2022-08-07T03:29:39.843Z,4.00
2022-08-07T03:32:15.543Z,4.75
2022-08-07T03:34:47.419Z,4.85
2022-08-07T03:37:37.386Z,3.75
2022-08-07T03:40:16.673Z,6.53
2022-08-07T03:42:44.544Z,6.10
2022-08-07T03:45:20.937Z,6.35
2022-08-07T03:48:03.464Z,4.93
2022-08-07T03:50:34.908Z,4.25
2022-08-07T03:53:03.804Z,5.35
2022-08-07T03:55:57.548Z,5.25
2022-08-07T03:59:05.708Z,5.18
2022-08-07T04:01:11.596Z,6.93
2022-08-07T04:03:53.796Z,5.90
2022-08-07T04:06:37.402Z,4.72
2022-08-07T04:09:15.894Z,5.03
2022-08-07T04:12:27.947Z,5.15
2022-08-07T04:14:38.807Z,5.10
2022-08-07T04:17:21.314Z,6.70
2022-08-07T04:19:54.121Z,4.93
2022-08-07T04:22:28.841Z,6.13
2022-08-07T04:25:00.959Z,5.22
2022-08-07T04:27:39.230Z,6.70
2022-08-07T04:30:21.259Z,7.15
2022-08-07T04:33:13.929Z,4.53
2022-08-07T04:35:50.504Z,6.65
2022-08-07T04:38:20.530Z,4.70
2022-08-07T04:40:51.714Z,4.28
2022-08-07T04:44:09.846Z,5.07
2022-08-07T04:46:34.777Z,5.18
2022-08-07T04:49:27.249Z,4.35
2022-08-07T04:52:00.115Z,3.25
2022-08-07T04:54:50.421Z,4.80
2022-08-07T04:58:25.725Z,4.60
2022-08-07T05:00:50.585Z,3.95
2022-08-07T05:04:00.639Z,4.47
2022-08-07T05:06:19.585Z,5.38
2022-08-07T05:09:15.380Z,4.80
2022-08-07T05:11:58.552Z,3.85
2022-08-07T05:14:52.110Z,4.03
2022-08-07T05:17:51.775Z,5.88
2022-08-07T05:20:21.354Z,5.68
2022-08-07T05:22:52.991Z,5.13
2022-08-07T05:25:26.147Z,6.05
2022-08-07T05:28:20.852Z,4.15
2022-08-07T05:30:54.454Z,3.47
2022-08-07T05:33:23.029Z,3.95
2022-08-07T05:35:52.824Z,4.53
2022-08-07T05:39:00.225Z,4.28
2022-08-07T05:41:14.578Z,4.32
2022-08-07T05:44:11.845Z,4.45
2022-08-07T05:46:43.371Z,3.83
2022-08-07T05:49:13.076Z,4.68
2022-08-07T05:51:46.415Z,6.05
2022-08-07T05:54:31.273Z,5.32
2022-08-07T05:57:09.070Z,7.25
2022-08-07T05:59:57.916Z,4.00
2022-08-07T06:02:31.220Z,5.43
2022-08-07T06:05:15.333Z,2.90
2022-08-07T06:08:13.235Z,3.63
2022-08-07T06:10:32.193Z,2.55
2022-08-07T06:13:02.254Z,4.45
2022-08-07T06:15:38.567Z,4.28
2022-08-07T06:18:14.076Z,4.15
2022-08-07T06:20:49.772Z,5.38
2022-08-07T06:23:46.488Z,3.83
2022-08-07T06:26:20.202Z,2.83
2022-08-07T06:28:53.037Z,2.50
2022-08-07T06:31:38.294Z,2.80
2022-08-07T06:34:08.326Z,4.30
2022-08-07T06:36:36.682Z,2.95
2022-08-07T06:40:15.756Z,2.83
2022-08-07T06:42:34.825Z,3.58
2022-08-07T06:45:23.811Z,1.20
2022-08-07T06:47:59.301Z,1.77
2022-08-07T06:50:47.948Z,2.05
2022-08-07T06:55:28.913Z,1.55
2022-08-07T06:56:15.544Z,1.50
2022-08-07T07:00:11.708Z,1.25
2022-08-07T07:01:43.879Z,3.53
2022-08-07T07:04:28.499Z,2.30
2022-08-07T07:07:02.338Z,1.63
2022-08-07T07:09:50.971Z,2.67
2022-08-07T07:12:48.661Z,1.73
2022-08-07T07:15:35.792Z,1.77
2022-08-07T07:18:07.644Z,1.98
2022-08-07T07:20:36.904Z,1.40
2022-08-07T07:24:08.486Z,1.08
2022-08-07T07:26:35.419Z,2.15
2022-08-07T07:29:56.858Z,2.15
2022-08-07T07:31:44.656Z,2.30
2022-08-07T07:34:22.172Z,1.80
2022-08-07T07:37:14.941Z,1.52
2022-08-07T07:39:54.521Z,2.30
2022-08-07T07:42:32.470Z,2.42
2022-08-07T07:45:05.545Z,1.45
2022-08-07T07:47:52.020Z,2.22
2022-08-07T07:50:34.946Z,2.08
2022-08-07T07:53:23.322Z,2.10
2022-08-07T07:56:00.588Z,2.95
2022-08-07T07:58:36.977Z,2.70
2022-08-07T08:02:01.930Z,1.83
2022-08-07T08:04:09.965Z,1.77
2022-08-07T08:06:40.679Z,2.85
2022-08-07T08:09:22.826Z,2.20
2022-08-07T08:12:02.471Z,1.95
2022-08-07T08:14:34.367Z,2.47
2022-08-07T08:17:55.632Z,1.63
2022-08-07T08:20:17.681Z,3.75
2022-08-07T08:23:10.032Z,1.63
2022-08-07T08:25:57.959Z,2.30
2022-08-07T08:28:37.732Z,1.70
2022-08-07T08:31:16.149Z,1.52
2022-08-07T08:33:49.979Z,10.27
2022-08-07T08:36:29.835Z,2.35
2022-08-07T08:39:02.044Z,1.88
2022-08-07T08:41:57.449Z,1.77
2022-08-07T08:44:58.302Z,2.03
2022-08-07T08:47:52.596Z,1.85
2022-08-07T08:50:39.172Z,2.45
2022-08-07T08:53:19.256Z,3.88
2022-08-07T08:55:59.535Z,2.67
2022-08-07T08:58:50.672Z,2.38
2022-08-07T09:01:29.570Z,1.52
2022-08-07T09:04:14.979Z,2.22
2022-08-07T09:06:56.174Z,2.20
2022-08-07T09:09:44.629Z,1.95
2022-08-07T09:12:41.408Z,1.38
2022-08-07T09:16:24.255Z,1.30
2022-08-07T09:19:51.289Z,1.92
2022-08-07T09:24:27.102Z,3.15
2022-08-07T09:25:17.573Z,1.90
2022-08-07T09:28:05.071Z,5.47
2022-08-07T09:30:45.417Z,1.85
2022-08-07T09:33:52.652Z,2.10
2022-08-07T09:36:21.581Z,2.05
2022-08-07T09:39:53.928Z,2.17
2022-08-07T09:42:25.036Z,2.03
2022-08-07T09:47:50.443Z,2.90
2022-08-07T09:48:14.572Z,1.63
2022-08-07T09:50:59.653Z,4.47
2022-08-07T09:53:41.256Z,2.20
2022-08-07T09:56:56.764Z,2.45
2022-08-07T09:59:46.752Z,2.10
2022-08-07T10:02:56.500Z,3.28
2022-08-07T10:05:59.974Z,2.55
2022-08-07T10:08:44.235Z,2.25
2022-08-07T10:12:03.397Z,1.90
2022-08-07T10:14:40.570Z,2.22
2022-08-07T10:18:01.540Z,3.17
2022-08-07T10:20:51.592Z,2.10
2022-08-07T10:24:06.093Z,2.80
2022-08-07T10:26:51.571Z,1.60
2022-08-07T10:29:30.672Z,1.63
2022-08-07T10:32:36.773Z,3.80
2022-08-07T10:35:27.194Z,2.45
2022-08-07T10:38:47.950Z,2.30
2022-08-07T10:41:51.486Z,2.03
2022-08-07T10:44:16.642Z,3.83
2022-08-07T10:47:26.853Z,1.40
2022-08-07T10:50:31.250Z,2.58
2022-08-07T10:53:21.576Z,1.65
2022-08-07T10:56:02.168Z,3.55
2022-08-07T10:58:41.288Z,1.58
2022-08-07T11:01:25.634Z,2.90
2022-08-07T11:04:31.475Z,2.60
2022-08-07T11:07:14.895Z,1.60
2022-08-07T11:10:10.233Z,3.13
2022-08-07T11:13:07.176Z,4.20
2022-08-07T11:15:59.811Z,1.80
2022-08-07T11:18:35.619Z,2.03
2022-08-07T11:21:27.707Z,3.38
2022-08-07T11:24:12.385Z,3.38
2022-08-07T11:26:50.305Z,2.88
2022-08-07T11:29:42.744Z,1.23
2022-08-07T11:32:26.012Z,3.63
2022-08-07T11:35:09.375Z,2.10
2022-08-07T11:38:12.481Z,1.35
2022-08-07T11:40:59.363Z,1.60
2022-08-07T11:43:54.179Z,2.63
2022-08-07T11:46:48.682Z,2.45
2022-08-07T11:50:11.441Z,1.92
2022-08-07T11:52:51.755Z,1.95
2022-08-07T11:56:09.619Z,1.95
2022-08-07T11:58:44.355Z,2.17
2022-08-07T12:02:00.094Z,1.92
2022-08-07T12:04:40.765Z,1.25
2022-08-07T12:07:38.944Z,2.63
2022-08-07T12:10:17.535Z,1.95
2022-08-07T12:12:56.968Z,1.42
2022-08-07T12:15:46.106Z,1.60
2022-08-07T12:18:45.554Z,2.05
2022-08-07T12:22:35.854Z,2.35
2022-08-07T12:25:10.353Z,2.30
2022-08-07T12:28:03.987Z,2.13
2022-08-07T12:30:40.664Z,2.08
2022-08-07T12:33:28.211Z,1.40
2022-08-07T12:35:58.998Z,2.65
2022-08-07T12:38:42.808Z,4.20
2022-08-07T12:41:16.234Z,3.63
2022-08-07T12:44:03.012Z,2.00
2022-08-07T12:46:34.915Z,2.78
2022-08-07T12:49:44.696Z,2.53
2022-08-07T12:52:28.946Z,2.67
2022-08-07T12:55:17.934Z,1.70
2022-08-07T12:58:01.203Z,2.58
2022-08-07T13:01:02.691Z,1.73
2022-08-07T13:04:02.030Z,1.60
2022-08-07T13:07:01.669Z,1.20
2022-08-07T13:10:38.290Z,1.55
2022-08-07T13:13:02.325Z,1.73
2022-08-07T13:15:42.915Z,1.85
2022-08-07T13:18:29.162Z,1.25
2022-08-07T13:21:09.528Z,2.08
2022-08-07T13:24:04.062Z,1.10
2022-08-07T13:26:46.353Z,1.88
2022-08-07T13:29:24.116Z,1.40
2022-08-07T13:32:23.812Z,1.60
2022-08-07T13:34:56.438Z,1.45
2022-08-07T13:37:58.657Z,1.42
2022-08-07T13:40:41.794Z,1.85
2022-08-07T13:43:16.142Z,2.25
2022-08-07T13:46:11.683Z,2.15
2022-08-07T13:48:43.867Z,1.50
2022-08-07T13:51:28.547Z,1.20
2022-08-07T13:54:16.613Z,2.15
2022-08-07T13:56:55.913Z,1.67
2022-08-07T13:59:27.542Z,1.70
2022-08-07T14:02:08.459Z,2.92
2022-08-07T14:04:54.600Z,2.25
2022-08-07T14:10:02.407Z,4.07
2022-08-07T14:13:01.278Z,2.17
2022-08-07T14:15:42.139Z,3.58
2022-08-07T14:18:28.977Z,1.42
2022-08-07T14:21:11.704Z,1.63
2022-08-07T14:24:02.225Z,1.88
2022-08-07T14:26:50.343Z,1.10
2022-08-07T14:30:05.310Z,1.85
2022-08-07T14:32:13.980Z,1.95
2022-08-07T14:34:45.993Z,2.42
2022-08-07T14:37:16.846Z,2.30
2022-08-07T14:40:17.213Z,1.67
2022-08-07T14:42:35.597Z,1.58
2022-08-07T14:45:48.763Z,3.33
2022-08-07T14:48:21.158Z,2.25
2022-08-07T14:50:53.956Z,1.50
2022-08-07T15:00:02.787Z,2.95
2022-08-07T15:01:58.361Z,3.63
2022-08-07T15:04:26.203Z,1.98
2022-08-07T15:06:56.987Z,1.95
2022-08-07T15:09:59.879Z,2.20
2022-08-07T15:12:26.188Z,1.30
2022-08-07T15:18:28.596Z,3.00
2022-08-07T15:25:14.313Z,2.55
2022-08-07T15:26:47.759Z,2.95
2022-08-07T15:32:05.600Z,2.35
2022-08-07T15:34:50.227Z,1.55
2022-08-07T15:37:27.946Z,2.03
2022-08-07T15:40:02.557Z,2.83
2022-08-07T15:42:54.703Z,2.95
2022-08-07T15:45:55.820Z,2.72
2022-08-07T15:48:29.858Z,2.33
2022-08-07T15:51:08.703Z,2.35
2022-08-07T15:53:52.106Z,2.08
2022-08-07T15:56:29.349Z,3.33
2022-08-07T15:59:06.068Z,3.65
2022-08-07T16:02:02.478Z,2.65
2022-08-07T16:04:33.444Z,2.67
2022-08-07T16:07:04.788Z,1.58
2022-08-07T16:09:51.782Z,1.85
2022-08-07T16:13:04.729Z,2.97
2022-08-07T16:16:02.263Z,2.78
2022-08-07T16:18:49.544Z,2.17
2022-08-07T16:22:01.573Z,2.60
2022-08-07T16:25:52.227Z,2.72
2022-08-07T16:29:18.742Z,2.17
2022-08-07T16:31:50.255Z,1.73
2022-08-07T16:34:22.069Z,3.45
2022-08-07T16:38:04.117Z,2.35
2022-08-07T16:40:28.898Z,1.73
2022-08-07T16:43:12.668Z,2.90
2022-08-07T16:46:47.620Z,2.38
2022-08-07T16:50:28.441Z,1.65
2022-08-07T16:52:51.467Z,3.35
2022-08-07T16:55:26.807Z,2.55
2022-08-07T16:58:33.713Z,2.70
2022-08-07T17:01:41.624Z,4.50
2022-08-07T17:04:30.058Z,1.80
2022-08-07T17:07:28.547Z,2.38
2022-08-07T17:10:30.211Z,2.15
2022-08-07T17:13:41.786Z,2.15
2022-08-07T17:16:31.278Z,1.35
2022-08-07T17:19:03.823Z,2.42
2022-08-07T17:21:50.569Z,2.35
2022-08-07T17:24:42.938Z,2.30
2022-08-07T17:27:50.945Z,2.50
2022-08-07T17:30:19.787Z,3.42
2022-08-07T17:33:00.490Z,2.00
2022-08-07T17:35:54.739Z,2.08
2022-08-07T17:38:39.590Z,2.20
2022-08-07T17:42:02.147Z,1.73
2022-08-07T17:44:45.439Z,1.90
2022-08-07T17:47:38.655Z,2.30
2022-08-07T17:50:19.452Z,2.65
2022-08-07T17:52:55.435Z,1.75
2022-08-07T17:55:56.578Z,1.15
2022-08-07T17:58:57.023Z,2.10
2022-08-07T18:01:57.675Z,4.10
2022-08-07T18:04:44.539Z,1.80
2022-08-07T18:07:24.133Z,1.77
2022-08-07T18:10:05.611Z,2.63
2022-08-07T18:12:59.450Z,3.65
2022-08-07T18:15:32.966Z,1.58
2022-08-07T18:18:46.694Z,2.50
2022-08-07T18:21:51.637Z,1.58
2022-08-07T18:24:34.199Z,1.35
2022-08-07T18:27:17.395Z,1.45
2022-08-07T18:30:04.203Z,4.95
2022-08-07T18:35:32.319Z,2.80
2022-08-07T18:38:55.882Z,1.55
2022-08-07T18:41:45.784Z,4.55
2022-08-07T18:48:00.986Z,2.90
2022-08-07T18:50:47.187Z,1.85
2022-08-07T18:53:14.642Z,3.03
2022-08-07T18:56:03.044Z,2.08
2022-08-07T18:58:35.773Z,2.08
2022-08-07T19:01:02.760Z,2.42
2022-08-07T19:03:56.856Z,4.32
2022-08-07T19:06:49.588Z,4.07
2022-08-07T19:09:57.157Z,1.95
2022-08-07T19:12:38.569Z,2.33
2022-08-07T19:16:05.657Z,3.85
2022-08-07T19:18:46.490Z,2.67
2022-08-07T19:21:47.965Z,3.53
2022-08-07T19:24:30.855Z,3.17
2022-08-07T19:28:57.682Z,3.17
2022-08-07T19:31:04.380Z,6.68
2022-08-07T19:32:46.296Z,3.33
2022-08-07T19:35:22.610Z,1.90
2022-08-07T19:37:57.557Z,1.63
2022-08-07T19:40:31.516Z,2.67
2022-08-07T19:43:12.758Z,2.90
2022-08-07T19:46:05.104Z,2.47
2022-08-07T19:48:53.637Z,1.90
2022-08-07T19:51:51.269Z,1.50
2022-08-07T19:54:33.671Z,3.42
2022-08-07T19:58:00.479Z,3.30
2022-08-07T19:59:53.018Z,3.40
2022-08-07T20:02:40.042Z,3.00
2022-08-07T20:05:31.063Z,1.98
2022-08-07T20:08:23.606Z,1.77
2022-08-07T20:11:09.937Z,2.10
2022-08-07T20:13:44.828Z,2.03
2022-08-07T20:16:32.251Z,2.40
2022-08-07T20:19:06.103Z,3.08
2022-08-07T20:21:41.773Z,3.55
2022-08-07T20:24:23.054Z,3.33
2022-08-07T20:26:54.770Z,4.57
2022-08-07T20:29:49.323Z,2.95
2022-08-07T20:32:22.915Z,2.63
2022-08-07T20:34:56.016Z,2.28
2022-08-07T20:37:33.887Z,3.35
2022-08-07T20:40:32.693Z,1.88
2022-08-07T20:42:58.946Z,2.80
2022-08-07T20:45:33.539Z,4.28
2022-08-07T20:48:28.887Z,2.40
2022-08-07T20:50:59.967Z,3.40
2022-08-07T20:54:04.741Z,4.13
2022-08-07T20:56:16.553Z,2.50
2022-08-07T20:58:50.316Z,2.70
2022-08-07T21:01:21.081Z,2.67
2022-08-07T21:04:18.814Z,2.95
2022-08-07T21:06:53.116Z,2.42
2022-08-07T21:09:24.555Z,2.72
2022-08-07T21:11:57.503Z,5.38
2022-08-07T21:14:48.457Z,2.33
2022-08-07T21:18:17.089Z,1.95
2022-08-07T21:20:30.447Z,4.95
2022-08-07T21:23:08.814Z,2.78
2022-08-07T21:26:10.418Z,1.88
2022-08-07T21:28:53.546Z,2.00
2022-08-07T21:32:47.904Z,2.03
2022-08-07T21:35:11.337Z,1.60
2022-08-07T21:37:59.611Z,4.00
2022-08-07T21:40:50.079Z,2.47
2022-08-07T21:43:55.185Z,2.53
2022-08-07T21:46:55.207Z,2.95
2022-08-07T21:50:03.603Z,1.88
2022-08-07T21:53:07.815Z,2.88
2022-08-07T21:55:50.725Z,2.80
2022-08-07T21:58:56.380Z,2.15
2022-08-07T22:02:10.364Z,6.25
2022-08-07T22:04:51.300Z,2.85
2022-08-07T22:07:58.685Z,3.40
2022-08-07T22:10:56.591Z,4.38
2022-08-07T22:13:51.209Z,2.72
2022-08-07T22:17:12.891Z,4.57
2022-08-07T22:20:06.989Z,2.40
2022-08-07T22:22:46.844Z,4.35
2022-08-07T22:25:56.867Z,4.80
2022-08-07T22:31:59.905Z,3.20
2022-08-07T22:34:59.390Z,2.30
2022-08-07T22:38:03.524Z,3.75
2022-08-07T22:41:03.624Z,2.72
2022-08-07T22:43:52.402Z,2.70
2022-08-07T22:47:08.843Z,3.05
2022-08-07T22:50:08.015Z,9.95
2022-08-07T22:52:53.653Z,2.33
2022-08-07T22:55:59.762Z,2.50
2022-08-07T22:58:52.553Z,3.15
2022-08-07T23:02:06.971Z,3.63
2022-08-07T23:06:10.292Z,3.45
2022-08-07T23:10:00.460Z,4.20
2022-08-07T23:12:34.308Z,2.97
2022-08-07T23:16:04.605Z,4.00
2022-08-07T23:18:18.668Z,4.97
2022-08-07T23:21:04.205Z,4.00
2022-08-07T23:24:05.112Z,5.47
2022-08-07T23:26:54.845Z,2.90
2022-08-07T23:30:37.236Z,2.60
2022-08-07T23:34:35.634Z,4.40
2022-08-07T23:36:07.466Z,2.95
2022-08-07T23:38:56.005Z,7.90
2022-08-07T23:41:33.539Z,3.40
2022-08-07T23:44:16.731Z,3.60
2022-08-07T23:47:11.641Z,4.55
2022-08-07T23:49:50.597Z,3.72
2022-08-07T23:53:06.461Z,4.68
2022-08-07T23:56:11.857Z,5.50
2022-08-07T23:58:55.108Z,6.30
